sensor_id;sensor_type;location;lat;lon;timestamp;pressure;altitude;pressure_sealevel;temperature;humidity
43436;BME280;36399;51.444;-2.018;2023-01-08T00:02:09;98622.47;;;6.89;100.00
43436;BME280;36399;51.444;-2.018;2023-01-08T00:04:35;98624.22;;;6.85;100.00
43436;BME280;36399;51.444;-2.018;2023-01-08T00:07:01;98608.56;;;6.88;100.00
43436;BME280;36399;51.444;-2.018;2023-01-08T00:09:28;98612.03;;;6.90;100.00
43436;BME280;36399;51.444;-2.018;2023-01-08T00:11:53;98612.06;;;6.81;100.00
43436;BME280;36399;51.444;-2.018;2023-01-08T00:14:20;98615.53;;;6.73;100.00
43436;BME280;36399;51.444;-2.018;2023-01-08T00:16:46;98605.09;;;6.86;100.00
43436;BME280;36399;51.444;-2.018;2023-01-08T00:19:12;98589.44;;;6.89;100.00
43436;BME280;36399;51.444;-2.018;2023-01-08T00:21:38;98578.06;;;7.06;100.00
43436;BME280;36399;51.444;-2.018;2023-01-08T00:24:04;98590.25;;;7.07;100.00
43436;BME280;36399;51.444;-2.018;2023-01-08T00:26:33;98606.75;;;7.15;100.00
43436;BME280;36399;51.444;-2.018;2023-01-08T00:28:59;98611.13;;;7.01;100.00
43436;BME280;36399;51.444;-2.018;2023-01-08T00:31:25;98605.91;;;7.05;100.00
43436;BME280;36399;51.444;-2.018;2023-01-08T00:33:51;98594.59;;;7.11;100.00
43436;BME280;36399;51.444;-2.018;2023-01-08T00:36:17;98592.84;;;7.10;100.00
43436;BME280;36399;51.444;-2.018;2023-01-08T00:38:44;98597.22;;;7.00;100.00
43436;BME280;36399;51.444;-2.018;2023-01-08T00:41:13;98602.47;;;6.95;100.00
43436;BME280;36399;51.444;-2.018;2023-01-08T00:43:39;98600.75;;;6.90;100.00
43436;BME280;36399;51.444;-2.018;2023-01-08T00:46:05;98593.78;;;6.92;100.00
43436;BME280;36399;51.444;-2.018;2023-01-08T00:48:32;98599.88;;;6.86;100.00
43436;BME280;36399;51.444;-2.018;2023-01-08T00:51:06;98599.84;;;6.95;100.00
43436;BME280;36399;51.444;-2.018;2023-01-08T00:53:32;98600.72;;;6.97;100.00
43436;BME280;36399;51.444;-2.018;2023-01-08T00:56:06;98594.63;;;7.02;100.00
43436;BME280;36399;51.444;-2.018;2023-01-08T00:58:32;98577.22;;;7.01;100.00
43436;BME280;36399;51.444;-2.018;2023-01-08T01:00:58;98572.88;;;7.00;100.00
43436;BME280;36399;51.444;-2.018;2023-01-08T01:03:24;98579.81;;;7.08;100.00
43436;BME280;36399;51.444;-2.018;2023-01-08T01:05:59;98583.28;;;7.07;100.00
43436;BME280;36399;51.444;-2.018;2023-01-08T01:08:25;98578.03;;;7.16;100.00
43436;BME280;36399;51.444;-2.018;2023-01-08T01:10:51;98573.69;;;7.17;100.00
43436;BME280;36399;51.444;-2.018;2023-01-08T01:13:17;98563.19;;;7.26;100.00
43436;BME280;36399;51.444;-2.018;2023-01-08T01:15:43;98560.59;;;7.23;100.00
43436;BME280;36399;51.444;-2.018;2023-01-08T01:18:10;98561.47;;;7.25;100.00
43436;BME280;36399;51.444;-2.018;2023-01-08T01:20:35;98557.97;;;7.32;100.00
43436;BME280;36399;51.444;-2.018;2023-01-08T01:23:03;98558.88;;;7.30;100.00
43436;BME280;36399;51.444;-2.018;2023-01-08T01:25:28;98558.88;;;7.23;100.00
43436;BME280;36399;51.444;-2.018;2023-01-08T01:27:54;98558.88;;;7.20;100.00
43436;BME280;36399;51.444;-2.018;2023-01-08T01:30:20;98551.91;;;7.25;100.00
43436;BME280;36399;51.444;-2.018;2023-01-08T01:32:49;98548.41;;;7.28;100.00
43436;BME280;36399;51.444;-2.018;2023-01-08T01:35:15;98550.16;;;7.26;100.00
43436;BME280;36399;51.444;-2.018;2023-01-08T01:37:41;98548.44;;;7.19;100.00
43436;BME280;36399;51.444;-2.018;2023-01-08T01:40:07;98545.00;;;7.11;100.00
43436;BME280;36399;51.444;-2.018;2023-01-08T01:42:33;98545.00;;;7.11;100.00
43436;BME280;36399;51.444;-2.018;2023-01-08T01:45:25;98544.19;;;7.00;100.00
43436;BME280;36399;51.444;-2.018;2023-01-08T01:48:02;98525.03;;;7.04;100.00
43436;BME280;36399;51.444;-2.018;2023-01-08T01:50:32;98513.75;;;7.02;100.00
43436;BME280;36399;51.444;-2.018;2023-01-08T01:53:25;98512.88;;;7.03;100.00
43436;BME280;36399;51.444;-2.018;2023-01-08T01:55:52;98503.31;;;7.02;100.00
43436;BME280;36399;51.444;-2.018;2023-01-08T01:58:26;98497.22;;;7.00;100.00
43436;BME280;36399;51.444;-2.018;2023-01-08T02:00:55;98503.31;;;6.99;100.00
43436;BME280;36399;51.444;-2.018;2023-01-08T02:03:28;98512.94;;;6.83;100.00
43436;BME280;36399;51.444;-2.018;2023-01-08T02:05:55;98512.09;;;6.72;100.00
43436;BME280;36399;51.444;-2.018;2023-01-08T02:08:36;98515.56;;;6.71;100.00
43436;BME280;36399;51.444;-2.018;2023-01-08T02:11:16;98517.31;;;6.72;100.00
43436;BME280;36399;51.444;-2.018;2023-01-08T02:13:51;98530.31;;;6.76;100.00
43436;BME280;36399;51.444;-2.018;2023-01-08T02:16:33;98530.28;;;6.94;100.00
43436;BME280;36399;51.444;-2.018;2023-01-08T02:19:07;98537.28;;;6.74;100.00
43436;BME280;36399;51.444;-2.018;2023-01-08T02:24:50;98529.47;;;6.80;100.00
43436;BME280;36399;51.444;-2.018;2023-01-08T02:27:20;98521.66;;;6.68;100.00
43436;BME280;36399;51.444;-2.018;2023-01-08T02:29:48;98539.06;;;6.57;100.00
43436;BME280;36399;51.444;-2.018;2023-01-08T02:32:16;98534.75;;;6.51;100.00
43436;BME280;36399;51.444;-2.018;2023-01-08T02:34:42;98523.47;;;6.48;100.00
43436;BME280;36399;51.444;-2.018;2023-01-08T02:37:08;98526.97;;;6.36;100.00
43436;BME280;36399;51.444;-2.018;2023-01-08T02:39:43;98526.09;;;6.36;100.00
43436;BME280;36399;51.444;-2.018;2023-01-08T02:47:45;98539.13;;;6.26;100.00
43436;BME280;36399;51.444;-2.018;2023-01-08T02:50:30;98542.59;;;6.28;100.00
43436;BME280;36399;51.444;-2.018;2023-01-08T02:55:39;98549.53;;;6.07;100.00
43436;BME280;36399;51.444;-2.018;2023-01-08T02:58:06;98534.78;;;6.13;100.00
43436;BME280;36399;51.444;-2.018;2023-01-08T03:00:32;98541.72;;;6.22;100.00
43436;BME280;36399;51.444;-2.018;2023-01-08T03:05:42;98538.25;;;6.38;100.00
43436;BME280;36399;51.444;-2.018;2023-01-08T03:08:10;98534.78;;;6.39;100.00
43436;BME280;36399;51.444;-2.018;2023-01-08T03:10:38;98535.66;;;6.26;100.00
43436;BME280;36399;51.444;-2.018;2023-01-08T03:13:31;98526.09;;;6.17;100.00
43436;BME280;36399;51.444;-2.018;2023-01-08T03:16:08;98530.44;;;6.09;100.00
43436;BME280;36399;51.444;-2.018;2023-01-08T03:18:40;98540.84;;;6.01;100.00
43436;BME280;36399;51.444;-2.018;2023-01-08T03:21:09;98542.56;;;5.89;100.00
43436;BME280;36399;51.444;-2.018;2023-01-08T03:23:36;98551.25;;;5.82;100.00
43436;BME280;36399;51.444;-2.018;2023-01-08T03:26:05;98535.63;;;5.79;100.00
43436;BME280;36399;51.444;-2.018;2023-01-08T03:28:39;98532.16;;;5.80;100.00
43436;BME280;36399;51.444;-2.018;2023-01-08T03:31:07;98528.66;;;5.75;100.00
43436;BME280;36399;51.444;-2.018;2023-01-08T03:33:34;98526.91;;;5.67;100.00
43436;BME280;36399;51.444;-2.018;2023-01-08T03:36:02;98527.78;;;5.69;100.00
43436;BME280;36399;51.444;-2.018;2023-01-08T03:38:32;98526.91;;;5.67;100.00
43436;BME280;36399;51.444;-2.018;2023-01-08T03:41:04;98521.69;;;5.70;100.00
43436;BME280;36399;51.444;-2.018;2023-01-08T03:43:31;98517.34;;;5.60;100.00
43436;BME280;36399;51.444;-2.018;2023-01-08T03:46:01;98521.69;;;5.58;100.00
43436;BME280;36399;51.444;-2.018;2023-01-08T03:48:29;98519.06;;;5.57;100.00
43436;BME280;36399;51.444;-2.018;2023-01-08T03:50:56;98507.81;;;5.59;100.00
43436;BME280;36399;51.444;-2.018;2023-01-08T03:53:21;98504.31;;;5.54;100.00
43436;BME280;36399;51.444;-2.018;2023-01-08T03:55:47;98499.13;;;5.57;100.00
43436;BME280;36399;51.444;-2.018;2023-01-08T03:58:13;98489.59;;;5.58;100.00
43436;BME280;36399;51.444;-2.018;2023-01-08T04:00:39;98512.19;;;5.73;100.00
43436;BME280;36399;51.444;-2.018;2023-01-08T04:03:05;98506.06;;;5.63;100.00
43436;BME280;36399;51.444;-2.018;2023-01-08T04:05:32;98503.47;;;5.70;100.00
43436;BME280;36399;51.444;-2.018;2023-01-08T04:07:57;98500.88;;;5.67;100.00
43436;BME280;36399;51.444;-2.018;2023-01-08T04:10:24;98498.25;;;5.69;100.00
43436;BME280;36399;51.444;-2.018;2023-01-08T04:12:50;98497.41;;;5.68;100.00
43436;BME280;36399;51.444;-2.018;2023-01-08T04:15:16;98499.13;;;5.63;100.00
43436;BME280;36399;51.444;-2.018;2023-01-08T04:17:42;98504.31;;;5.51;100.00
43436;BME280;36399;51.444;-2.018;2023-01-08T04:20:09;98499.13;;;5.51;100.00
43436;BME280;36399;51.444;-2.018;2023-01-08T04:22:35;98485.25;;;5.55;100.00
43436;BME280;36399;51.444;-2.018;2023-01-08T04:25:01;98500.00;;;5.52;100.00
43436;BME280;36399;51.444;-2.018;2023-01-08T04:27:26;98503.44;;;5.43;100.00
43436;BME280;36399;51.444;-2.018;2023-01-08T04:29:52;98495.63;;;5.40;100.00
43436;BME280;36399;51.444;-2.018;2023-01-08T04:32:18;98493.03;;;5.34;100.00
43436;BME280;36399;51.444;-2.018;2023-01-08T04:34:44;98484.34;;;5.33;100.00
43436;BME280;36399;51.444;-2.018;2023-01-08T04:37:10;98494.75;;;5.26;100.00
43436;BME280;36399;51.444;-2.018;2023-01-08T04:39:36;98481.75;;;5.26;100.00
43436;BME280;36399;51.444;-2.018;2023-01-08T04:42:02;98497.28;;;5.11;100.00
43436;BME280;36399;51.444;-2.018;2023-01-08T04:44:28;98488.63;;;5.13;100.00
43436;BME280;36399;51.444;-2.018;2023-01-08T04:46:54;98488.63;;;5.12;100.00
43436;BME280;36399;51.444;-2.018;2023-01-08T04:49:20;98493.78;;;5.02;100.00
43436;BME280;36399;51.444;-2.018;2023-01-08T04:51:46;98495.50;;;4.99;100.00
43436;BME280;36399;51.444;-2.018;2023-01-08T04:54:12;98496.41;;;5.04;100.00
43436;BME280;36399;51.444;-2.018;2023-01-08T04:56:38;98485.13;;;5.10;100.00
43436;BME280;36399;51.444;-2.018;2023-01-08T04:59:03;98486.88;;;5.14;100.00
43436;BME280;36399;51.444;-2.018;2023-01-08T05:01:29;98483.41;;;5.10;100.00
43436;BME280;36399;51.444;-2.018;2023-01-08T05:03:58;98483.41;;;5.12;100.00
43436;BME280;36399;51.444;-2.018;2023-01-08T05:06:25;98481.75;;;5.26;100.00
43436;BME280;36399;51.444;-2.018;2023-01-08T05:08:52;98476.50;;;5.20;100.00
43436;BME280;36399;51.444;-2.018;2023-01-08T05:11:18;98490.38;;;5.19;100.00
43436;BME280;36399;51.444;-2.018;2023-01-08T05:13:48;98479.09;;;5.17;100.00
43436;BME280;36399;51.444;-2.018;2023-01-08T05:16:15;98481.72;;;5.23;100.00
43436;BME280;36399;51.444;-2.018;2023-01-08T05:18:42;98468.75;;;5.36;100.00
43436;BME280;36399;51.444;-2.018;2023-01-08T05:21:08;98473.94;;;5.43;100.00
43436;BME280;36399;51.444;-2.018;2023-01-08T05:23:34;98462.69;;;5.48;100.00
43436;BME280;36399;51.444;-2.018;2023-01-08T05:26:01;98467.03;;;5.51;100.00
43436;BME280;36399;51.444;-2.018;2023-01-08T05:28:28;98468.75;;;5.53;100.00
43436;BME280;36399;51.444;-2.018;2023-01-08T05:30:54;98466.16;;;5.58;100.00
43436;BME280;36399;51.444;-2.018;2023-01-08T05:33:20;98470.50;;;5.51;100.00
43436;BME280;36399;51.444;-2.018;2023-01-08T05:35:46;98468.75;;;5.46;100.00
43436;BME280;36399;51.444;-2.018;2023-01-08T05:38:12;98457.47;;;5.51;100.00
43436;BME280;36399;51.444;-2.018;2023-01-08T05:40:38;98460.94;;;5.53;100.00
43436;BME280;36399;51.444;-2.018;2023-01-08T05:43:04;98464.41;;;5.52;100.00
43436;BME280;36399;51.444;-2.018;2023-01-08T05:45:32;98454.88;;;5.53;100.00
43436;BME280;36399;51.444;-2.018;2023-01-08T05:47:58;98460.94;;;5.56;100.00
43436;BME280;36399;51.444;-2.018;2023-01-08T05:50:24;98454.88;;;5.60;100.00
43436;BME280;36399;51.444;-2.018;2023-01-08T05:52:50;98455.75;;;5.58;100.00
43436;BME280;36399;51.444;-2.018;2023-01-08T05:55:16;98454.88;;;5.53;100.00
43436;BME280;36399;51.444;-2.018;2023-01-08T05:57:42;98454.88;;;5.51;100.00
43436;BME280;36399;51.444;-2.018;2023-01-08T06:00:09;98460.94;;;5.41;100.00
43436;BME280;36399;51.444;-2.018;2023-01-08T06:02:35;98470.47;;;5.36;100.00
43436;BME280;36399;51.444;-2.018;2023-01-08T06:05:01;98458.34;;;5.32;100.00
43436;BME280;36399;51.444;-2.018;2023-01-08T06:07:30;98456.59;;;5.22;100.00
43436;BME280;36399;51.444;-2.018;2023-01-08T06:09:55;98460.88;;;5.17;100.00
43436;BME280;36399;51.444;-2.018;2023-01-08T06:12:21;98460.88;;;5.20;100.00
43436;BME280;36399;51.444;-2.018;2023-01-08T06:14:47;98463.47;;;5.12;100.00
43436;BME280;36399;51.444;-2.018;2023-01-08T06:17:13;98461.75;;;5.16;100.00
43436;BME280;36399;51.444;-2.018;2023-01-08T06:19:42;98467.78;;;5.02;100.00
43436;BME280;36399;51.444;-2.018;2023-01-08T06:22:08;98462.56;;;4.99;100.00
43436;BME280;36399;51.444;-2.018;2023-01-08T06:24:34;98456.50;;;4.93;100.00
43436;BME280;36399;51.444;-2.018;2023-01-08T06:26:59;98461.69;;;4.91;100.00
43436;BME280;36399;51.444;-2.018;2023-01-08T06:29:25;98453.03;;;4.92;100.00
43436;BME280;36399;51.444;-2.018;2023-01-08T06:31:51;98457.34;;;4.89;100.00
43436;BME280;36399;51.444;-2.018;2023-01-08T06:34:17;98457.34;;;4.93;100.00
43436;BME280;36399;51.444;-2.018;2023-01-08T06:36:43;98463.44;;;4.97;100.00
43436;BME280;36399;51.444;-2.018;2023-01-08T06:39:09;98462.56;;;4.98;100.00
43436;BME280;36399;51.444;-2.018;2023-01-08T06:41:35;98460.84;;;4.95;100.00
43436;BME280;36399;51.444;-2.018;2023-01-08T06:44:01;98462.53;;;4.83;100.00
43436;BME280;36399;51.444;-2.018;2023-01-08T06:46:27;98450.41;;;4.89;100.00
43436;BME280;36399;51.444;-2.018;2023-01-08T06:48:53;98457.34;;;4.90;100.00
43436;BME280;36399;51.444;-2.018;2023-01-08T06:51:19;98450.41;;;4.89;100.00
43436;BME280;36399;51.444;-2.018;2023-01-08T06:53:48;98450.41;;;4.86;100.00
43436;BME280;36399;51.444;-2.018;2023-01-08T06:56:14;98443.50;;;4.91;100.00
43436;BME280;36399;51.444;-2.018;2023-01-08T06:58:39;98445.22;;;4.95;100.00
43436;BME280;36399;51.444;-2.018;2023-01-08T07:01:06;98435.69;;;4.93;100.00
43436;BME280;36399;51.444;-2.018;2023-01-08T07:03:31;98433.94;;;4.89;100.00
43436;BME280;36399;51.444;-2.018;2023-01-08T07:05:57;98424.41;;;4.88;100.00
43436;BME280;36399;51.444;-2.018;2023-01-08T07:08:23;98431.34;;;4.84;100.00
43436;BME280;36399;51.444;-2.018;2023-01-08T07:10:49;98431.34;;;4.84;100.00
43436;BME280;36399;51.444;-2.018;2023-01-08T07:13:15;98420.06;;;4.79;100.00
43436;BME280;36399;51.444;-2.018;2023-01-08T07:15:41;98413.16;;;4.86;100.00
43436;BME280;36399;51.444;-2.018;2023-01-08T07:18:10;98408.81;;;4.83;100.00
43436;BME280;36399;51.444;-2.018;2023-01-08T07:20:36;98406.19;;;4.80;100.00
43436;BME280;36399;51.444;-2.018;2023-01-08T07:23:08;98414.00;;;4.80;100.00
43436;BME280;36399;51.444;-2.018;2023-01-08T07:25:34;98412.28;;;4.85;100.00
43436;BME280;36399;51.444;-2.018;2023-01-08T07:28:00;98410.56;;;4.87;100.00
43436;BME280;36399;51.444;-2.018;2023-01-08T07:30:27;98399.28;;;4.94;100.00
43436;BME280;36399;51.444;-2.018;2023-01-08T07:32:57;98396.69;;;4.93;100.00
43436;BME280;36399;51.444;-2.018;2023-01-08T07:35:22;98392.34;;;4.92;100.00
43436;BME280;36399;51.444;-2.018;2023-01-08T07:37:48;98388.03;;;4.92;100.00
43436;BME280;36399;51.444;-2.018;2023-01-08T07:40:14;98387.16;;;4.89;100.00
43436;BME280;36399;51.444;-2.018;2023-01-08T07:42:40;98385.44;;;4.98;100.00
43436;BME280;36399;51.444;-2.018;2023-01-08T07:45:06;98374.16;;;4.93;100.00
43436;BME280;36399;51.444;-2.018;2023-01-08T07:47:33;98379.34;;;4.90;100.00
43436;BME280;36399;51.444;-2.018;2023-01-08T07:49:58;98371.56;;;4.87;100.00
43436;BME280;36399;51.444;-2.018;2023-01-08T07:52:24;98375.03;;;4.89;100.00
43436;BME280;36399;51.444;-2.018;2023-01-08T07:54:50;98372.44;;;4.92;100.00
43436;BME280;36399;51.444;-2.018;2023-01-08T07:57:16;98369.84;;;4.95;100.00
43436;BME280;36399;51.444;-2.018;2023-01-08T07:59:42;98358.56;;;5.08;100.00
43436;BME280;36399;51.444;-2.018;2023-01-08T08:02:10;98348.16;;;5.12;100.00
43436;BME280;36399;51.444;-2.018;2023-01-08T08:04:36;98362.03;;;5.20;100.00
43436;BME280;36399;51.444;-2.018;2023-01-08T08:07:02;98343.00;;;5.21;100.00
43436;BME280;36399;51.444;-2.018;2023-01-08T08:09:28;98338.66;;;5.21;100.00
43436;BME280;36399;51.444;-2.018;2023-01-08T08:11:54;98326.53;;;5.22;100.00
43436;BME280;36399;51.444;-2.018;2023-01-08T08:14:20;98329.13;;;5.22;100.00
43436;BME280;36399;51.444;-2.018;2023-01-08T08:16:46;98313.50;;;5.31;100.00
43436;BME280;36399;51.444;-2.018;2023-01-08T08:19:12;98309.16;;;5.39;100.00
43436;BME280;36399;51.444;-2.018;2023-01-08T08:21:38;98296.16;;;5.45;100.00
43436;BME280;36399;51.444;-2.018;2023-01-08T08:24:04;98302.22;;;5.46;100.00
43436;BME280;36399;51.444;-2.018;2023-01-08T08:26:30;98290.06;;;5.51;100.00
43436;BME280;36399;51.444;-2.018;2023-01-08T08:28:56;98285.69;;;5.60;100.00
43436;BME280;36399;51.444;-2.018;2023-01-08T08:31:22;98292.59;;;5.70;100.00
43436;BME280;36399;51.444;-2.018;2023-01-08T08:33:48;98286.56;;;5.73;100.00
43436;BME280;36399;51.444;-2.018;2023-01-08T08:36:14;98287.44;;;5.74;100.00
43436;BME280;36399;51.444;-2.018;2023-01-08T08:38:42;98290.88;;;5.76;100.00
43436;BME280;36399;51.444;-2.018;2023-01-08T08:41:08;98289.13;;;5.82;100.00
43436;BME280;36399;51.444;-2.018;2023-01-08T08:43:34;98284.81;;;5.80;100.00
43436;BME280;36399;51.444;-2.018;2023-01-08T08:46:01;98280.47;;;5.79;100.00
43436;BME280;36399;51.444;-2.018;2023-01-08T08:48:27;98285.69;;;5.79;100.00
43436;BME280;36399;51.444;-2.018;2023-01-08T08:50:53;98282.19;;;5.80;100.00
43436;BME280;36399;51.444;-2.018;2023-01-08T08:53:18;98281.31;;;5.71;100.00
43436;BME280;36399;51.444;-2.018;2023-01-08T08:55:44;98275.28;;;5.76;100.00
43436;BME280;36399;51.444;-2.018;2023-01-08T08:58:11;98268.34;;;5.73;100.00
43436;BME280;36399;51.444;-2.018;2023-01-08T09:00:39;98259.66;;;5.76;100.00
43436;BME280;36399;51.444;-2.018;2023-01-08T09:03:05;98252.72;;;5.76;100.00
43436;BME280;36399;51.444;-2.018;2023-01-08T09:05:34;98237.91;;;5.87;100.00
43436;BME280;36399;51.444;-2.018;2023-01-08T09:08:00;98239.66;;;5.93;100.00
43436;BME280;36399;51.444;-2.018;2023-01-08T09:10:26;98247.41;;;6.02;100.00
43436;BME280;36399;51.444;-2.018;2023-01-08T09:12:52;98259.47;;;6.20;100.00
43436;BME280;36399;51.444;-2.018;2023-01-08T09:15:19;98247.28;;;6.23;100.00
43436;BME280;36399;51.444;-2.018;2023-01-08T09:17:55;98242.09;;;6.26;100.00
43436;BME280;36399;51.444;-2.018;2023-01-08T09:20:22;98230.81;;;6.23;100.00
43436;BME280;36399;51.444;-2.018;2023-01-08T09:22:48;98223.00;;;6.18;100.00
43436;BME280;36399;51.444;-2.018;2023-01-08T09:25:15;98225.63;;;6.18;100.00
43436;BME280;36399;51.444;-2.018;2023-01-08T09:27:43;98216.03;;;6.23;100.00
43436;BME280;36399;51.444;-2.018;2023-01-08T09:30:10;98216.03;;;6.29;100.00
43436;BME280;36399;51.444;-2.018;2023-01-08T09:32:36;98211.63;;;6.36;100.00
43436;BME280;36399;51.444;-2.018;2023-01-08T09:35:03;98212.47;;;6.40;100.00
43436;BME280;36399;51.444;-2.018;2023-01-08T09:37:30;98212.47;;;6.43;100.00
43436;BME280;36399;51.444;-2.018;2023-01-08T09:39:55;98216.72;;;6.53;100.00
43436;BME280;36399;51.444;-2.018;2023-01-08T09:42:24;98205.34;;;6.63;100.00
43436;BME280;36399;51.444;-2.018;2023-01-08T09:44:54;98200.97;;;6.68;100.00
43436;BME280;36399;51.444;-2.018;2023-01-08T09:47:25;98182.66;;;6.77;100.00
43436;BME280;36399;51.444;-2.018;2023-01-08T09:49:57;98196.47;;;6.88;100.00
43436;BME280;36399;51.444;-2.018;2023-01-08T09:52:24;98194.66;;;6.96;100.00
43436;BME280;36399;51.444;-2.018;2023-01-08T09:54:51;98187.66;;;7.02;100.00
43436;BME280;36399;51.444;-2.018;2023-01-08T09:57:19;98191.09;;;7.07;100.00
43436;BME280;36399;51.444;-2.018;2023-01-08T09:59:46;98192.72;;;7.17;100.00
43436;BME280;36399;51.444;-2.018;2023-01-08T10:04:41;98177.75;;;7.36;100.00
43436;BME280;36399;51.444;-2.018;2023-01-08T10:07:16;98174.16;;;7.46;100.00
43436;BME280;36399;51.444;-2.018;2023-01-08T10:09:47;98177.69;;;7.42;100.00
43436;BME280;36399;51.444;-2.018;2023-01-08T10:12:20;98180.31;;;7.40;100.00
43436;BME280;36399;51.444;-2.018;2023-01-08T10:14:49;98166.41;;;7.38;100.00
43436;BME280;36399;51.444;-2.018;2023-01-08T10:17:35;98167.22;;;7.43;100.00
43436;BME280;36399;51.444;-2.018;2023-01-08T10:22:35;98181.03;;;7.53;100.00
43436;BME280;36399;51.444;-2.018;2023-01-08T10:25:08;98169.84;;;7.43;100.00
43436;BME280;36399;51.444;-2.018;2023-01-08T10:30:20;98173.38;;;7.39;100.00
43436;BME280;36399;51.444;-2.018;2023-01-08T10:32:51;98162.81;;;7.48;100.00
43436;BME280;36399;51.444;-2.018;2023-01-08T10:35:20;98171.53;;;7.47;100.00
43436;BME280;36399;51.444;-2.018;2023-01-08T10:37:46;98175.78;;;7.54;100.00
43436;BME280;36399;51.444;-2.018;2023-01-08T10:43:03;98157.41;;;7.64;100.00
43436;BME280;36399;51.444;-2.018;2023-01-08T10:45:30;98144.31;;;7.67;100.00
43436;BME280;36399;51.444;-2.018;2023-01-08T10:47:59;98152.97;;;7.70;100.00
43436;BME280;36399;51.444;-2.018;2023-01-08T10:50:29;98135.53;;;7.72;100.00
43436;BME280;36399;51.444;-2.018;2023-01-08T10:53:00;98143.47;;;7.65;100.00
43436;BME280;36399;51.444;-2.018;2023-01-08T10:55:34;98142.56;;;7.67;100.00
43436;BME280;36399;51.444;-2.018;2023-01-08T10:58:13;98138.25;;;7.65;100.00
43436;BME280;36399;51.444;-2.018;2023-01-08T11:00:39;98131.25;;;7.67;100.00
43436;BME280;36399;51.444;-2.018;2023-01-08T11:03:07;98131.38;;;7.57;100.00
43436;BME280;36399;51.444;-2.018;2023-01-08T11:05:43;98136.59;;;7.56;100.00
43436;BME280;36399;51.444;-2.018;2023-01-08T11:08:15;98133.13;;;7.55;100.00
43436;BME280;36399;51.444;-2.018;2023-01-08T11:10:42;98134.91;;;7.53;100.00
43436;BME280;36399;51.444;-2.018;2023-01-08T11:13:18;98125.31;;;7.55;100.00
43436;BME280;36399;51.444;-2.018;2023-01-08T11:15:44;98116.53;;;7.59;100.00
43436;BME280;36399;51.444;-2.018;2023-01-08T11:18:25;98119.06;;;7.66;100.00
43436;BME280;36399;51.444;-2.018;2023-01-08T11:20:52;98115.72;;;7.57;100.00
43436;BME280;36399;51.444;-2.018;2023-01-08T11:23:24;98104.41;;;7.57;100.00
43436;BME280;36399;51.444;-2.018;2023-01-08T11:25:53;98123.69;;;7.45;100.00
43436;BME280;36399;51.444;-2.018;2023-01-08T11:28:27;98123.88;;;7.30;100.00
43436;BME280;36399;51.444;-2.018;2023-01-08T11:31:02;98111.78;;;7.20;100.00
43436;BME280;36399;51.444;-2.018;2023-01-08T11:33:31;98113.63;;;7.12;100.00
43436;BME280;36399;51.444;-2.018;2023-01-08T11:36:07;98106.88;;;6.94;100.00
43436;BME280;36399;51.444;-2.018;2023-01-08T11:38:35;98095.72;;;6.80;100.00
43436;BME280;36399;51.444;-2.018;2023-01-08T11:41:37;98081.91;;;6.67;100.00
43436;BME280;36399;51.444;-2.018;2023-01-08T11:44:37;98078.53;;;6.57;100.00
43436;BME280;36399;51.444;-2.018;2023-01-08T11:47:43;98068.97;;;6.58;100.00
43436;BME280;36399;51.444;-2.018;2023-01-08T11:52:47;98033.44;;;6.51;100.00
43436;BME280;36399;51.444;-2.018;2023-01-08T11:56:19;98039.50;;;6.51;100.00
43436;BME280;36399;51.444;-2.018;2023-01-08T11:58:33;98034.19;;;6.60;100.00
43436;BME280;36399;51.444;-2.018;2023-01-08T12:04:22;97980.50;;;6.46;100.00
43436;BME280;36399;51.444;-2.018;2023-01-08T12:09:45;98007.50;;;6.37;100.00
43436;BME280;36399;51.444;-2.018;2023-01-08T12:20:38;97998.72;;;6.46;100.00
43436;BME280;36399;51.444;-2.018;2023-01-08T12:23:17;97996.13;;;6.46;100.00
43436;BME280;36399;51.444;-2.018;2023-01-08T12:25:59;97990.84;;;6.53;100.00
43436;BME280;36399;51.444;-2.018;2023-01-08T12:33:53;97989.03;;;6.60;100.00
43436;BME280;36399;51.444;-2.018;2023-01-08T12:36:42;97982.88;;;6.64;100.00
43436;BME280;36399;51.444;-2.018;2023-01-08T12:39:23;97975.88;;;6.69;100.00
43436;BME280;36399;51.444;-2.018;2023-01-08T12:41:53;97977.56;;;6.73;100.00
43436;BME280;36399;51.444;-2.018;2023-01-08T12:44:25;97979.28;;;6.74;100.00
43436;BME280;36399;51.444;-2.018;2023-01-08T12:46:56;97963.63;;;6.79;100.00
43436;BME280;36399;51.444;-2.018;2023-01-08T12:49:34;97951.44;;;6.79;100.00
43436;BME280;36399;51.444;-2.018;2023-01-08T12:54:51;97950.59;;;6.79;100.00
43436;BME280;36399;51.444;-2.018;2023-01-08T12:57:25;97942.75;;;6.80;100.00
43436;BME280;36399;51.444;-2.018;2023-01-08T13:00:16;97947.94;;;6.82;100.00
43436;BME280;36399;51.444;-2.018;2023-01-08T13:03:04;97927.03;;;6.86;100.00
43436;BME280;36399;51.444;-2.018;2023-01-08T13:05:36;97930.38;;;6.94;100.00
43436;BME280;36399;51.444;-2.018;2023-01-08T13:08:05;97931.97;;;7.06;100.00
43436;BME280;36399;51.444;-2.018;2023-01-08T13:10:35;97932.88;;;7.02;100.00
43436;BME280;36399;51.444;-2.018;2023-01-08T13:13:05;97929.53;;;6.94;100.00
43436;BME280;36399;51.444;-2.018;2023-01-08T13:15:32;97934.75;;;6.92;100.00
43436;BME280;36399;51.444;-2.018;2023-01-08T13:18:13;97928.63;;;6.96;100.00
43436;BME280;36399;51.444;-2.018;2023-01-08T13:20:40;97926.94;;;6.92;100.00
43436;BME280;36399;51.444;-2.018;2023-01-08T13:23:22;97926.88;;;6.95;100.00
43436;BME280;36399;51.444;-2.018;2023-01-08T13:25:54;97918.19;;;6.96;100.00
43436;BME280;36399;51.444;-2.018;2023-01-08T13:31:27;97913.59;;;7.14;100.00
43436;BME280;36399;51.444;-2.018;2023-01-08T13:33:54;97918.59;;;7.29;100.00
43436;BME280;36399;51.444;-2.018;2023-01-08T13:36:26;97884.56;;;7.37;100.00
43436;BME280;36399;51.444;-2.018;2023-01-08T13:39:20;97898.53;;;7.33;100.00
43436;BME280;36399;51.444;-2.018;2023-01-08T13:44:34;97907.38;;;7.21;100.00
43436;BME280;36399;51.444;-2.018;2023-01-08T13:47:17;97897.03;;;7.15;100.00
43436;BME280;36399;51.444;-2.018;2023-01-08T13:49:46;97888.38;;;7.13;100.00
43436;BME280;36399;51.444;-2.018;2023-01-08T13:52:31;97912.69;;;7.15;100.00
43436;BME280;36399;51.444;-2.018;2023-01-08T13:54:59;97900.53;;;7.14;100.00
43436;BME280;36399;51.444;-2.018;2023-01-08T13:57:33;97895.38;;;7.11;100.00